• Join FlightAware (Why Join?)
  • Login
  • US Flag 
02:51AM EDT


 

Airport Tracker/Info


-or-


 

Live Flight TrackerFlight Track Log ✈ GTX256 ✈ 03-Jul-2014 ✈ KSAT - KADS

Flight Track Log - Related Links

Times and Time Zones

All times are in EDT time to prevent confusion due to time zone crossing. See the GTX256 flight status page for this flight to view local times or setup timezone preferences in your user account.

Time Position Orientation Groundspeed Altitude Reporting Facility
EDT Latitude Longitude Course Direction KTS MPH feet Rate Location/Type
08:57PM 29.5414 -98.4617 315° West 104 120 1,200  Level Houston Center
08:57PM 29.5603 -98.4833 315° West 117 135 1,900 720 Climbing Houston Center
08:58PM 29.5678 -98.4897 323° Northwest 112 129 2,100 660 Climbing Houston Center
08:58PM 29.5814 -98.5097 308° West 117 135 2,600 540 Climbing Houston Center
08:59PM 29.5917 -98.5144 338° Northwest 113 130 2,700 660 Climbing Houston Center
08:59PM 29.6150 -98.5081 13° North 112 129 3,300 660 Climbing Houston Center
09:00PM 29.6433 -98.4975 18° North 106 122 3,900 480 Climbing Houston Center
09:01PM 29.6533 -98.4936 19° North 111 128 4,000 480 Climbing Houston Center
09:02PM 29.6844 -98.4853 13° North 114 131 4,600 420 Climbing Houston Center
09:04PM 29.7400 -98.4672 16° North 122 140 5,200 120 Climbing Fort Worth Center
09:05PM 29.7828 -98.4569 12° North 142 163 5,100 -60 Descending Fort Worth Center
09:06PM 29.8369 -98.4414 14° North 158 182 5,100 60 Level Fort Worth Center
09:07PM 29.8808 -98.4303 12° North 160 184 5,300  Climbing Fort Worth Center
09:08PM 29.9275 -98.4181 13° North 163 188 5,200 -120 Descending Fort Worth Center
09:09PM 29.9922 -98.3972 16° North 170 196 5,100 -120 Descending Houston Center
09:10PM 30.0406 -98.3839 13° North 177 204 5,000  Descending Houston Center
09:11PM 30.0889 -98.3686 15° North 180 207 5,100  Climbing Houston Center
09:12PM 30.1406 -98.3556 12° North 179 206 5,100  Level Houston Center
09:13PM 30.1900 -98.3461 North 179 206 5,100  Level Houston Center
09:14PM 30.2433 -98.3378 North 179 206 5,100  Level Houston Center
09:15PM 30.2925 -98.3264 11° North 179 206 5,100  Level Houston Center
09:16PM 30.3364 -98.3169 11° North 179 206 5,100  Level Houston Center
09:17PM 30.3853 -98.3072 10° North 180 207 5,100  Level Houston Center
09:18PM 30.4347 -98.2969 10° North 179 206 5,100  Level Houston Center
09:19PM 30.4942 -98.2858 North 179 206 5,100  Level Houston Center
09:20PM 30.5428 -98.2744 11° North 180 207 5,100  Level Houston Center
09:21PM 30.5881 -98.2617 14° North 179 206 5,100  Level Houston Center
09:22PM 30.6378 -98.2539 North 177 204 5,100  Level Houston Center
09:23PM 30.6858 -98.2442 10° North 177 204 5,100  Level Houston Center
09:24PM 30.7350 -98.2319 12° North 177 204 5,100  Level Houston Center
09:25PM 30.7844 -98.2225 North 177 204 5,100  Level Houston Center
09:26PM 30.8333 -98.2153 North 177 204 5,100 -60 Level Houston Center
09:27PM 30.8833 -98.2078 North 177 204 5,000  Descending Fort Worth Center
09:28PM 30.9306 -98.1964 12° North 177 204 5,100 60 Climbing Fort Worth Center
09:29PM 30.9625 -98.1903 North 172 198 5,100  Level Fort Worth Center
09:30PM 30.9881 -98.1858 North 177 204 5,100  Level Fort Worth Center
09:30PM 31.0100 -98.1803 12° North 175 201 5,100  Level Fort Worth Center
09:31PM 31.0353 -98.1753 10° North 177 204 5,100  Level Fort Worth Center
09:31PM 31.0594 -98.1725 North 174 200 5,100  Level Fort Worth Center
09:32PM 31.0836 -98.1658 13° North 177 204 5,100  Level Fort Worth Center
09:32PM 31.1064 -98.1600 12° North 175 201 5,100  Level Fort Worth Center
09:33PM 31.1558 -98.1497 10° North 177 204 5,100 -120 Level Fort Worth Center
09:34PM 31.1806 -98.1433 12° North 176 203 5,000  Descending Fort Worth Center
09:34PM 31.2114 -98.1383 North 180 207 5,100 60 Climbing Fort Worth Center
09:35PM 31.2289 -98.1336 13° North 177 204 5,100  Level Fort Worth Center
09:35PM 31.2583 -98.1258 13° North 176 203 5,100 -120 Level Fort Worth Center
09:36PM 31.2756 -98.1200 16° North 176 203 5,000 -120 Descending Fort Worth Center
09:36PM 31.3072 -98.1106 14° North 173 199 5,000 60 Level Fort Worth Center
09:37PM 31.3228 -98.1064 13° North 176 203 5,100 120 Climbing Fort Worth Center
09:37PM 31.3564 -98.0978 12° North 172 198 5,200 480 Climbing Fort Worth Center
09:38PM 31.3728 -98.0842 35° Northeast 172 198 5,600 300 Climbing Fort Worth Center
09:38PM 31.3903 -98.0653 43° Northeast 148 170 5,500  Descending Fort Worth Center
09:39PM 31.4064 -98.0531 33° Northeast 161 185 5,600  Climbing Fort Worth Center
09:39PM 31.4233 -98.0403 33° Northeast 167 192 5,500  Descending Fort Worth Center
09:40PM 31.4453 -98.0233 33° Northeast 160 184 5,600 60 Climbing Fort Worth Center
09:40PM 31.4639 -98.0092 33° Northeast 169 194 5,600  Level Fort Worth Center
09:41PM 31.4858 -97.9908 35° Northeast 165 190 5,600  Level Fort Worth Center
09:42PM 31.5233 -97.9603 35° Northeast 166 191 5,600  Level Fort Worth Center
09:43PM 31.5617 -97.9289 35° Northeast 166 191 5,600  Level Fort Worth Center
09:44PM 31.5992 -97.8978 35° Northeast 166 191 5,600  Level Fort Worth Center
09:45PM 31.6375 -97.8683 33° Northeast 166 191 5,600  Level Fort Worth Center
09:46PM 31.6742 -97.8378 35° Northeast 165 190 5,600  Level Fort Worth Center
09:47PM 31.7200 -97.8017 34° Northeast 165 190 5,600 -60 Level Fort Worth Center
09:48PM 31.7592 -97.7711 34° Northeast 165 190 5,500 -300 Descending Fort Worth Center
09:49PM 31.8000 -97.7392 34° Northeast 169 194 5,100 -360 Descending Fort Worth Center
09:50PM 31.8397 -97.7025 38° Northeast 175 201 4,800 -300 Descending Fort Worth Center
09:51PM 31.8792 -97.6694 35° Northeast 175 201 4,500 -300 Descending Fort Worth Center
09:53PM 31.9628 -97.5981 36° Northeast 174 200 3,900 -300 Descending Fort Worth Center
09:54PM 32.0025 -97.5653 35° Northeast 173 199 3,600 -180 Descending Fort Worth Center
09:55PM 32.0403 -97.5342 35° Northeast 168 193 3,600  Level Fort Worth Center
09:56PM 32.0797 -97.5014 35° Northeast 162 186 3,600  Level Fort Worth Center
09:57PM 32.1169 -97.4689 36° Northeast 164 189 3,600  Level Fort Worth Center
09:58PM 32.1533 -97.4392 35° Northeast 163 188 3,600  Level Fort Worth Center
09:59PM 32.1936 -97.4053 35° Northeast 163 188 3,600  Level Fort Worth Center
10:00PM 32.2297 -97.3736 37° Northeast 162 186 3,600  Level Fort Worth Center
10:01PM 32.2669 -97.3406 37° Northeast 166 191 3,600  Level Fort Worth Center
10:02PM 32.3019 -97.2986 45° Northeast 166 191 3,600  Level Fort Worth Center
10:03PM 32.3386 -97.2661 37° Northeast 165 190 3,600  Level Fort Worth Center
10:04PM 32.3767 -97.2339 36° Northeast 166 191 3,600  Level Fort Worth Center
10:06PM 32.4525 -97.1697 36° Northeast 167 192 3,600  Level Fort Worth Center
10:07PM 32.4944 -97.1372 33° Northeast 167 192 3,600 -60 Level Fort Worth Center
10:08PM 32.5314 -97.1089 33° Northeast 166 191 3,500 -300 Descending Fort Worth Center
10:09PM 32.5742 -97.0736 35° Northeast 172 198 3,100 -540 Descending Fort Worth Center
10:11PM 32.6164 -97.0403 34° Northeast 178 205 2,500 -300 Descending Fort Worth Center
10:12PM 32.6536 -97.0111 33° Northeast 163 188 2,500  Level Fort Worth Center
10:13PM 32.6931 -96.9828 31° Northeast 157 181 2,600  Climbing Fort Worth Center
10:14PM 32.7258 -96.9542 36° Northeast 150 173 2,600 -180 Level Fort Worth Center
10:15PM 32.7597 -96.9283 33° Northeast 149 171 2,300 -420 Descending Fort Worth Center
10:16PM 32.7975 -96.9017 31° Northeast 147 169 1,800 -360 Descending Fort Worth Center
10:17PM 32.8294 -96.8936 12° North 126 145 1,600 -360 Descending Fort Worth Center
10:18PM 32.8553 -96.8781 27° Northeast 112 129 1,100 -420 Descending Fort Worth Center
10:19PM 32.8647 -96.8542 65° Northeast 104 120 800 -300 Descending Fort Worth Center
10:21PM 32.8471 -96.8518 173° South  Level Estimated